Česky Dansk Deutsch English Español Suomi Français Magyar Italiano Nederlands norsk Polski Português svenska Türkçe

 

Het Weer

Kalkar (Duitsland)

12:20, 22 januari 2014 (GMT)

NWNNE
WE
SWSSE
Home            
Kalkar Laarbruch Niederrhein Volkel Deelen Monchengladbach Duesseldorf Brueggen Essen Eindhoven Twenthe Soesterberg Kleine Brogel De Bilt Geilenkirchen Gilze-Rijen Weelde Military Lelystad Dortmund / Wickede Maastricht Airport Zuid Limburg Rheine-Bentlage Nordhorn Aachen / Merzbruck

Om een weerknop op uw website of weblog te plaatsen, copieer onderstaande code en plak die in uw pagina. In het eerste vakje staat HTML-code, in het tweede vakje UBB-code.


Add to Google

Details

Wind speed:2 bf, 4 kn, 2.1 m/s, 4.6 miles/h, 7.4 km/h
Wind direction:SSE, 160°
Visibility: 6000 m, 6.0 km, 19685 ft, 3.7 miles
Het Weer:moderate
moderate
moderate
Temperature:5°C, 41°F
Dew-point:2°C, 36°F
Atmospheric pressure:1012 hPa, 759.1 mmHg, 29.88 inHg, 0.999 atm
Relative humidity:80.9 %
METAR:ETGY 221220Z AUTO 16004KT 6000 05/02 Q1012

Snelkoppelingen

Actuele weersinformatie van de hele wereld. Voeg locaties toe met het plus (+) symbool. Deze snelkoppelingen kunnen worden toegevoegd aan Google.

Lid van de Technetium groep

website free tracking
StatCounter NetStat W3C Validator

24-10-2020 01:57:20
astro.technetium.be money.technetium.be phote.technetium.be tafeltennistafel.technetium.be www.ligfiets.net